createdAt,value
2022-12-25T00:00:40.580Z,16.23
2022-12-25T00:03:43.451Z,13.85
2022-12-25T00:06:45.706Z,14.15
2022-12-25T00:09:48.131Z,17.25
2022-12-25T00:12:50.667Z,12.07
2022-12-25T00:15:53.127Z,17.00
2022-12-25T00:18:56.809Z,16.98
2022-12-25T00:21:59.197Z,13.88
2022-12-25T00:25:01.330Z,15.88
2022-12-25T00:28:03.907Z,14.75
2022-12-25T00:31:07.984Z,19.08
2022-12-25T00:34:10.440Z,17.20
2022-12-25T00:37:12.691Z,14.15
2022-12-25T00:40:15.223Z,12.20
2022-12-25T00:43:17.394Z,11.32
2022-12-25T00:46:19.994Z,13.68
2022-12-25T00:49:23.695Z,13.40
2022-12-25T00:52:26.352Z,14.73
2022-12-25T00:55:28.476Z,16.37
2022-12-25T00:58:32.795Z,14.80
2022-12-25T01:01:34.963Z,12.10
2022-12-25T01:04:37.544Z,10.60
2022-12-25T01:07:39.690Z,10.55
2022-12-25T01:10:42.119Z,12.70
2022-12-25T01:13:44.213Z,13.20
2022-12-25T01:16:46.742Z,13.07
2022-12-25T01:19:48.937Z,14.07
2022-12-25T01:22:51.323Z,17.70
2022-12-25T01:25:53.434Z,10.90
2022-12-25T01:28:56.243Z,11.07
2022-12-25T01:31:58.434Z,11.32
2022-12-25T01:35:00.845Z,9.75
2022-12-25T01:38:03.011Z,12.70
2022-12-25T01:41:05.449Z,9.18
2022-12-25T01:44:16.358Z,8.50
2022-12-25T01:47:18.939Z,10.25
2022-12-25T01:50:22.025Z,9.85
2022-12-25T01:53:26.286Z,8.55
2022-12-25T01:56:29.754Z,10.30
2022-12-25T01:59:32.368Z,11.27
2022-12-25T02:02:36.187Z,10.80
2022-12-25T02:05:38.755Z,8.27
2022-12-25T02:08:41.525Z,8.88
2022-12-25T02:11:57.262Z,10.20
2022-12-25T02:15:05.737Z,8.98
2022-12-25T02:18:27.000Z,8.07
2022-12-25T02:21:50.112Z,6.97
2022-12-25T02:25:04.760Z,13.30
2022-12-25T02:28:32.382Z,10.65
2022-12-25T02:31:59.300Z,5.68
2022-12-25T02:35:15.427Z,10.75
2022-12-25T02:39:04.201Z,5.00
2022-12-25T02:42:11.549Z,9.10
2022-12-25T02:45:38.159Z,12.00
2022-12-25T02:49:04.432Z,9.25
2022-12-25T02:52:33.237Z,9.10
2022-12-25T02:56:03.336Z,12.88
2022-12-25T02:59:25.588Z,9.53
2022-12-25T03:02:49.346Z,16.27
2022-12-25T03:06:13.172Z,13.00
2022-12-25T03:09:49.051Z,11.73
2022-12-25T03:13:27.767Z,8.57
2022-12-25T03:16:49.083Z,12.40
2022-12-25T03:20:09.975Z,10.38
2022-12-25T03:23:34.011Z,9.63
2022-12-25T03:26:54.844Z,5.68
2022-12-25T03:30:15.832Z,5.78
2022-12-25T03:33:45.784Z,7.80
2022-12-25T03:37:17.179Z,9.40
2022-12-25T03:41:09.567Z,10.65
2022-12-25T03:44:47.618Z,7.20
2022-12-25T03:48:18.651Z,5.00
2022-12-25T03:51:44.867Z,7.75
2022-12-25T03:55:09.239Z,4.75
2022-12-25T03:58:38.856Z,11.90
2022-12-25T04:02:00.352Z,8.18
2022-12-25T04:05:21.965Z,9.93
2022-12-25T04:08:43.200Z,7.78
2022-12-25T04:12:04.797Z,5.65
2022-12-25T04:15:26.157Z,12.85
2022-12-25T04:18:47.098Z,7.03
2022-12-25T04:22:08.056Z,4.97
2022-12-25T04:25:29.184Z,6.28
2022-12-25T04:28:49.962Z,4.28
2022-12-25T04:32:10.950Z,8.27
2022-12-25T04:35:31.759Z,4.55
2022-12-25T04:38:34.636Z,4.75
2022-12-25T04:41:36.800Z,5.37
2022-12-25T04:44:39.269Z,8.77
2022-12-25T04:47:41.375Z,4.65
2022-12-25T04:50:43.769Z,5.35
2022-12-25T04:53:47.489Z,8.65
2022-12-25T04:56:49.891Z,6.68
2022-12-25T04:59:51.996Z,6.78
2022-12-25T05:02:54.564Z,12.45
2022-12-25T05:05:57.094Z,9.05
2022-12-25T05:08:59.583Z,6.78
2022-12-25T05:12:01.746Z,8.63
2022-12-25T05:15:04.424Z,8.10
2022-12-25T05:18:06.741Z,8.00
2022-12-25T05:21:11.761Z,9.80
2022-12-25T05:24:13.945Z,5.10
2022-12-25T05:27:16.545Z,8.60
2022-12-25T05:30:18.684Z,11.50
2022-12-25T05:33:21.071Z,5.18
2022-12-25T05:36:23.790Z,12.48
2022-12-25T05:39:26.217Z,6.82
2022-12-25T05:42:28.418Z,6.60
2022-12-25T05:45:31.307Z,8.18
2022-12-25T05:48:35.610Z,8.30
2022-12-25T05:51:38.215Z,10.25
2022-12-25T05:54:40.375Z,3.72
2022-12-25T05:57:42.793Z,12.63
2022-12-25T06:00:44.951Z,10.00
2022-12-25T06:03:47.950Z,7.53
2022-12-25T06:06:50.403Z,8.48
2022-12-25T06:09:53.089Z,12.50
2022-12-25T06:12:55.304Z,12.77
2022-12-25T06:15:59.089Z,9.48
2022-12-25T06:19:01.290Z,11.93
2022-12-25T06:22:03.895Z,10.05
2022-12-25T06:25:06.634Z,8.10
2022-12-25T06:28:09.116Z,8.75
2022-12-25T06:31:17.123Z,8.93
2022-12-25T06:34:19.599Z,10.57
2022-12-25T06:37:21.727Z,14.13
2022-12-25T06:40:24.123Z,8.98
2022-12-25T06:43:26.225Z,12.37
2022-12-25T06:46:30.260Z,8.75
2022-12-25T06:49:32.529Z,19.12
2022-12-25T06:52:35.043Z,10.95
2022-12-25T06:55:37.373Z,10.00
2022-12-25T06:58:44.206Z,14.65
2022-12-25T07:01:50.371Z,17.75
2022-12-25T07:04:53.525Z,9.30
2022-12-25T07:07:55.767Z,9.55
2022-12-25T07:10:58.233Z,12.93
2022-12-25T07:14:00.456Z,9.35
2022-12-25T07:17:02.872Z,9.50
2022-12-25T07:20:06.910Z,16.48
2022-12-25T07:23:09.308Z,7.68
2022-12-25T07:26:12.339Z,11.32
2022-12-25T07:29:14.945Z,11.75
2022-12-25T07:32:17.271Z,10.52
2022-12-25T07:35:19.891Z,10.43
2022-12-25T07:38:22.043Z,11.30
2022-12-25T07:41:24.636Z,11.95
2022-12-25T07:44:29.761Z,11.75
2022-12-25T07:47:32.175Z,8.48
2022-12-25T07:50:34.417Z,9.98
2022-12-25T07:53:37.785Z,11.75
2022-12-25T07:56:39.931Z,8.43
2022-12-25T07:59:42.366Z,8.50
2022-12-25T08:02:44.915Z,10.73
2022-12-25T08:05:47.655Z,8.98
2022-12-25T08:08:49.863Z,11.50
2022-12-25T08:11:52.350Z,13.48
2022-12-25T08:14:54.521Z,14.15
2022-12-25T08:17:56.920Z,14.10
2022-12-25T08:21:06.364Z,12.43
2022-12-25T08:24:08.769Z,13.10
2022-12-25T08:27:10.935Z,15.02
2022-12-25T08:30:13.633Z,11.57
2022-12-25T08:33:15.781Z,15.77
2022-12-25T08:36:18.927Z,16.30
2022-12-25T08:39:21.100Z,11.77
2022-12-25T08:42:23.584Z,14.32
2022-12-25T08:45:31.208Z,12.57
2022-12-25T08:48:37.965Z,15.43
2022-12-25T08:51:40.260Z,12.82
2022-12-25T08:54:42.659Z,18.70
2022-12-25T08:57:44.819Z,15.35
2022-12-25T09:00:47.255Z,20.45
2022-12-25T09:03:49.449Z,10.57
2022-12-25T09:06:51.987Z,17.17
2022-12-25T09:09:54.116Z,15.70
2022-12-25T09:12:56.933Z,11.93
2022-12-25T09:15:59.679Z,16.70
2022-12-25T09:19:02.308Z,13.70
2022-12-25T09:22:04.745Z,17.05
2022-12-25T09:25:07.497Z,13.57
2022-12-25T09:28:09.609Z,19.00
2022-12-25T09:31:12.055Z,18.85
2022-12-25T09:34:18.875Z,20.30
2022-12-25T09:37:21.559Z,19.62
2022-12-25T09:40:28.360Z,17.90
2022-12-25T09:43:33.309Z,20.12
2022-12-25T09:47:10.386Z,18.33
2022-12-25T09:50:27.971Z,19.10
2022-12-25T09:53:44.521Z,15.75
2022-12-25T09:56:46.980Z,17.25
2022-12-25T09:59:49.164Z,11.20
2022-12-25T10:03:13.067Z,15.80
2022-12-25T10:06:18.718Z,12.07
2022-12-25T10:09:52.505Z,9.60
2022-12-25T10:13:22.766Z,9.45
2022-12-25T10:20:05.655Z,10.50
2022-12-25T10:23:22.711Z,14.55
2022-12-25T10:26:26.965Z,10.20
2022-12-25T10:29:32.655Z,4.75
2022-12-25T10:32:35.104Z,9.60
2022-12-25T10:35:37.852Z,7.57
2022-12-25T10:38:40.224Z,8.68
2022-12-25T10:42:10.984Z,15.60
2022-12-25T10:45:13.430Z,11.60
2022-12-25T10:48:27.735Z,6.40
2022-12-25T10:51:35.780Z,11.85
2022-12-25T10:54:37.924Z,8.52
2022-12-25T10:57:47.095Z,9.57
2022-12-25T11:00:55.286Z,6.00
2022-12-25T11:03:58.046Z,6.25
2022-12-25T11:07:22.305Z,5.60
2022-12-25T11:10:42.215Z,9.15
2022-12-25T11:13:50.895Z,5.30
2022-12-25T11:16:53.712Z,11.52
2022-12-25T11:19:58.536Z,7.32
2022-12-25T11:23:00.945Z,9.02
2022-12-25T11:26:08.107Z,9.20
2022-12-25T11:29:37.060Z,6.30
2022-12-25T11:32:48.629Z,9.27
2022-12-25T11:35:54.787Z,9.93
2022-12-25T11:39:16.531Z,5.82
2022-12-25T11:42:34.989Z,7.87
2022-12-25T11:46:18.361Z,9.07
2022-12-25T11:49:24.248Z,8.73
2022-12-25T11:52:32.057Z,10.40
2022-12-25T11:55:49.464Z,7.95
2022-12-25T11:59:01.515Z,6.70
2022-12-25T12:02:36.436Z,8.85
2022-12-25T12:05:53.286Z,7.05
2022-12-25T12:09:24.120Z,6.25
2022-12-25T12:12:46.810Z,5.03
2022-12-25T12:15:51.573Z,6.87
2022-12-25T12:18:54.017Z,3.92
2022-12-25T12:22:00.909Z,8.20
2022-12-25T12:25:07.127Z,12.20
2022-12-25T12:28:23.407Z,11.82
2022-12-25T12:31:38.972Z,10.32
2022-12-25T12:34:50.129Z,13.82
2022-12-25T12:37:56.674Z,16.40
2022-12-25T12:41:01.827Z,10.98
2022-12-25T12:44:05.537Z,11.45
2022-12-25T12:47:28.229Z,10.32
2022-12-25T12:50:35.407Z,17.83
2022-12-25T12:53:42.718Z,7.70
2022-12-25T12:56:59.844Z,8.00
2022-12-25T13:00:10.028Z,9.52
2022-12-25T13:03:38.199Z,10.65
2022-12-25T13:07:03.427Z,5.22
2022-12-25T13:10:35.343Z,9.52
2022-12-25T13:13:42.003Z,6.45
2022-12-25T13:16:47.363Z,4.37
2022-12-25T13:19:55.187Z,4.90
2022-12-25T13:22:57.637Z,6.50
2022-12-25T13:26:06.277Z,11.77
2022-12-25T13:29:22.895Z,13.85
2022-12-25T13:32:32.057Z,11.88
2022-12-25T13:35:35.166Z,6.37
2022-12-25T13:38:42.527Z,11.05
2022-12-25T13:42:09.370Z,10.27
2022-12-25T13:45:14.495Z,7.93
2022-12-25T13:48:20.081Z,11.88
2022-12-25T13:51:22.784Z,10.52
2022-12-25T13:54:26.842Z,10.60
2022-12-25T13:57:33.526Z,10.57
2022-12-25T14:00:46.471Z,10.35
2022-12-25T14:03:49.034Z,11.25
2022-12-25T14:06:52.466Z,8.10
2022-12-25T14:09:59.268Z,11.98
2022-12-25T14:13:05.464Z,18.55
2022-12-25T14:16:09.123Z,7.35
2022-12-25T14:19:22.915Z,7.22
2022-12-25T14:22:27.087Z,10.43
2022-12-25T14:25:33.398Z,11.75
2022-12-25T14:28:37.660Z,11.27
2022-12-25T14:31:40.353Z,15.00
2022-12-25T14:34:46.253Z,17.60
2022-12-25T14:37:54.680Z,11.60
2022-12-25T14:41:02.280Z,16.85
2022-12-25T14:44:24.639Z,11.60
2022-12-25T14:47:27.566Z,14.80
2022-12-25T14:50:32.039Z,10.40
2022-12-25T14:53:39.699Z,16.30
2022-12-25T14:56:48.195Z,12.57
2022-12-25T15:03:00.867Z,16.25
2022-12-25T15:06:06.424Z,15.55
2022-12-25T15:09:16.717Z,18.80
2022-12-25T15:12:19.176Z,21.80
2022-12-25T15:15:21.401Z,26.67
2022-12-25T15:18:26.379Z,20.42
2022-12-25T15:21:31.363Z,25.80
2022-12-25T15:24:33.811Z,17.87
2022-12-25T15:27:36.451Z,22.92
2022-12-25T15:30:39.367Z,18.55
2022-12-25T15:33:44.248Z,28.10
2022-12-25T15:36:53.770Z,25.08
2022-12-25T15:40:02.663Z,21.85
2022-12-25T15:43:11.308Z,18.37
2022-12-25T15:46:24.485Z,16.12
2022-12-25T15:49:27.150Z,18.55
2022-12-25T15:52:29.500Z,19.80
2022-12-25T15:55:32.088Z,20.50
2022-12-25T15:58:34.231Z,17.12
2022-12-25T16:01:36.771Z,17.87
2022-12-25T16:04:42.324Z,20.37
2022-12-25T16:07:44.465Z,22.02
2022-12-25T16:10:47.191Z,21.35
2022-12-25T16:13:49.413Z,22.70
2022-12-25T16:16:51.792Z,19.10
2022-12-25T16:19:53.906Z,22.48
2022-12-25T16:22:56.305Z,19.00
2022-12-25T16:25:58.689Z,22.33
2022-12-25T16:29:06.794Z,17.12
2022-12-25T16:32:11.629Z,27.50
2022-12-25T16:35:14.119Z,22.30
2022-12-25T16:38:16.251Z,21.55
2022-12-25T16:41:18.881Z,19.45
2022-12-25T16:44:21.092Z,18.90
2022-12-25T16:47:23.635Z,21.45
2022-12-25T16:50:25.876Z,25.40
2022-12-25T16:53:29.963Z,25.42
2022-12-25T16:56:32.438Z,19.50
2022-12-25T16:59:35.818Z,22.17
2022-12-25T17:02:38.101Z,22.27
2022-12-25T17:05:40.631Z,27.45
2022-12-25T17:08:43.544Z,25.67
2022-12-25T17:11:45.969Z,25.83
2022-12-25T17:14:48.102Z,19.87
2022-12-25T17:17:50.592Z,28.65
2022-12-25T17:20:53.900Z,24.30
2022-12-25T17:24:02.378Z,21.30
2022-12-25T17:27:08.556Z,27.77
2022-12-25T17:30:11.291Z,27.27
2022-12-25T17:33:13.393Z,28.77
2022-12-25T17:36:19.107Z,27.17
2022-12-25T17:39:21.264Z,24.90
2022-12-25T17:42:23.725Z,27.33
2022-12-25T17:45:25.944Z,28.67
2022-12-25T17:48:28.658Z,30.73
2022-12-25T17:51:31.669Z,25.02
2022-12-25T17:54:35.091Z,27.15
2022-12-25T17:57:37.216Z,27.50
2022-12-25T18:00:39.651Z,29.58
2022-12-25T18:03:43.727Z,26.92
2022-12-25T18:06:46.185Z,26.52
2022-12-25T18:09:48.570Z,24.75
2022-12-25T18:12:50.733Z,25.17
2022-12-25T18:15:53.148Z,27.05
2022-12-25T18:18:55.321Z,24.67
2022-12-25T18:21:57.755Z,24.33
2022-12-25T18:24:59.938Z,24.17
2022-12-25T18:28:02.915Z,29.15
2022-12-25T18:31:10.562Z,24.02
2022-12-25T18:34:13.195Z,23.27
2022-12-25T18:37:15.416Z,25.67
2022-12-25T18:40:17.940Z,26.27
2022-12-25T18:43:20.761Z,25.83
2022-12-25T18:46:43.184Z,23.75
2022-12-25T18:49:45.386Z,22.48
2022-12-25T18:52:51.556Z,26.35
2022-12-25T18:56:03.870Z,28.90
2022-12-25T18:59:06.359Z,23.98
2022-12-25T19:02:12.074Z,32.05
2022-12-25T19:05:15.678Z,19.15
2022-12-25T19:08:17.844Z,26.90
2022-12-25T19:11:21.227Z,29.45
2022-12-25T19:14:24.315Z,28.62
2022-12-25T19:17:31.968Z,17.67
2022-12-25T19:20:34.499Z,27.40
2022-12-25T19:23:38.268Z,26.20
2022-12-25T19:26:40.483Z,27.50
2022-12-25T19:29:42.927Z,22.45
2022-12-25T19:32:45.091Z,21.77
2022-12-25T19:35:48.906Z,24.40
2022-12-25T19:38:51.116Z,23.25
2022-12-25T19:41:53.513Z,21.25
2022-12-25T19:44:55.936Z,30.17
2022-12-25T19:47:58.441Z,25.62
2022-12-25T19:51:00.778Z,20.73
2022-12-25T19:54:04.948Z,24.23
2022-12-25T19:57:07.139Z,22.45
2022-12-25T20:00:09.977Z,26.10
2022-12-25T20:03:15.452Z,27.77
2022-12-25T20:06:27.829Z,25.65
2022-12-25T20:09:30.999Z,28.50
2022-12-25T20:12:33.413Z,24.12
2022-12-25T20:15:35.673Z,26.00
2022-12-25T20:18:39.221Z,25.80
2022-12-25T20:21:41.608Z,24.35
2022-12-25T20:24:44.436Z,25.50
2022-12-25T20:27:46.952Z,21.15
2022-12-25T20:30:49.405Z,19.77
2022-12-25T20:33:51.551Z,24.83
2022-12-25T20:36:54.000Z,23.12
2022-12-25T20:39:56.332Z,28.98
2022-12-25T20:42:58.724Z,24.20
2022-12-25T20:46:00.963Z,20.85
2022-12-25T20:49:04.293Z,25.92
2022-12-25T20:52:06.693Z,24.63
2022-12-25T20:55:09.153Z,35.63
2022-12-25T20:58:11.786Z,26.48
2022-12-25T21:01:18.464Z,38.30
2022-12-25T21:04:20.740Z,29.63
2022-12-25T21:07:23.154Z,25.48
2022-12-25T21:10:25.276Z,26.27
2022-12-25T21:13:30.181Z,26.12
2022-12-25T21:16:33.181Z,25.00
2022-12-25T21:19:35.780Z,19.52
2022-12-25T21:22:37.931Z,24.27
2022-12-25T21:25:40.388Z,20.10
2022-12-25T21:28:42.668Z,21.70
2022-12-25T21:32:03.609Z,18.90
2022-12-25T21:35:06.074Z,25.00
2022-12-25T21:38:08.515Z,21.65
2022-12-25T21:41:12.862Z,23.15
2022-12-25T21:44:15.311Z,20.80
2022-12-25T21:47:17.499Z,24.00
2022-12-25T21:50:39.516Z,18.48
2022-12-25T21:53:41.754Z,27.00
2022-12-25T21:56:47.279Z,30.98
2022-12-25T21:59:49.504Z,20.50
2022-12-25T22:02:52.102Z,25.67
2022-12-25T22:06:21.176Z,20.77
2022-12-25T22:09:24.058Z,20.70
2022-12-25T22:12:44.923Z,22.13
2022-12-25T22:16:05.791Z,22.67
2022-12-25T22:19:26.720Z,23.67
2022-12-25T22:22:30.067Z,22.60
2022-12-25T22:25:32.615Z,26.98
2022-12-25T22:28:34.756Z,22.73
2022-12-25T22:31:42.618Z,22.95
2022-12-25T22:34:48.479Z,20.77
2022-12-25T22:37:51.211Z,23.48
2022-12-25T22:40:53.401Z,21.20
2022-12-25T22:47:17.950Z,17.17
2022-12-25T22:50:20.429Z,21.40
2022-12-25T22:53:22.666Z,18.77
2022-12-25T22:56:25.177Z,23.35
2022-12-25T22:59:27.868Z,15.82
2022-12-25T23:02:30.516Z,17.65
2022-12-25T23:05:32.898Z,22.83
2022-12-25T23:08:35.425Z,22.27
2022-12-25T23:11:37.931Z,16.27
2022-12-25T23:14:40.449Z,26.75
2022-12-25T23:18:01.663Z,17.33
2022-12-25T23:21:22.880Z,16.62
2022-12-25T23:24:43.819Z,19.90
2022-12-25T23:27:46.286Z,18.70
2022-12-25T23:30:50.493Z,20.67
2022-12-25T23:33:52.914Z,19.02
2022-12-25T23:36:55.142Z,21.87
2022-12-25T23:39:57.588Z,20.30
2022-12-25T23:42:59.747Z,20.33
2022-12-25T23:46:02.355Z,15.20
2022-12-25T23:49:05.139Z,20.67
2022-12-25T23:52:07.539Z,15.63
2022-12-25T23:55:09.856Z,21.75
2022-12-25T23:58:12.275Z,18.37
